Hlavní strana
METAR-TAF:

METAR-TAF

Letiště :

Linköping, Švédsko

zeměpisná šířka: 58-24N, zeměpisná délka: 015-41E, výška: 52 m

Aktuální stav počasí

Zpráva byla vytvořena před 17 minutami, v 09:50 UTC
Severoseverozápadní vítr 7 kt, proměnlivý mezi severozápadním a severním
Teplota 2°C
Vlhkost vzduchu 55%
Tlak 1017 hPa
Viditelnost 10 km a více
Skoro jasno ve výšce 3300 ft

METAR: ESSL 040950Z 34007KT 310V010 9999 FEW033 02/M06 Q1017 R29/09//95

Čas: 11:07 (10:07 UTC)

Předpověď počasí

Zpráva byla vytvořena před 1 hodinou a 37 minutami, v 08:30 UTC
Předpověď platná od 04 v 09 UTC do 04 v 16 UTC
Severoseverozápadní vítr 10 kt
Viditelnost 10 km a více
Žádná oblačnost pod 1500 m, nevyskytují se cumulonimby.

TAF: ESSL 040830Z 0409/0416 33010KT CAVOK

Stav a předpovědi počasí z více než 4 000 letišť (zprávy METAR a TAF).

Červené a žluté tečky na mapě představují dostupné meteorologické stanice.

Když kurzor umístíte na tečku, zobrazí se název stanice.

Pak kliknutím zobrazíte stav a předpověď počasí.

Chcete-li změnit mapu, kliknutím na zelené tlačítko se znaménkem +mapu přiblížíte, kliknutím na zelené tlačítko se znaménkem – mapu oddálíte a kliknutím na zelené šipky přejdete na sousední mapy.


METAR-TAF: